JES3087 SAME-SABE
Flight info
| Callsign | JES3087 |
|---|---|
| Flight time | N/A |
| Altitude | 37000 |
| Route | KAMUV1G KAMUV UT670 SNT |
| Aircraft | A21N/M-SDE2E3FGHIRWXY/LB1 |
Departure
| Time | 2026-04-28 00:33 |
|---|---|
| Airport | Governor Francisco Gabrielli International Airport (SAME) |
Arrival
| Time | N/A |
|---|---|
| Airport | Aeroparque Jorge Newbery (SABE) |
| Time | Latitude | Longitude | Altitude | Speed | Heading |
|---|---|---|---|---|---|
| 2026-04-28 00:16 | -32.82764 | -68.79773 | 2319 ft | 0 kts | 264° |
| 2026-04-28 00:24 | -32.82762 | -68.79757 | 2319 ft | 2 kts | 264° |
| 2026-04-28 00:25 | -32.82762 | -68.79749 | 2319 ft | 0 kts | 264° |
| 2026-04-28 00:25 | -32.82761 | -68.79744 | 2319 ft | 1 kts | 264° |
| 2026-04-28 00:25 | -32.82760 | -68.79726 | 2319 ft | 2 kts | 264° |
| 2026-04-28 00:25 | -32.82759 | -68.79713 | 2319 ft | 1 kts | 292° |
| 2026-04-28 00:26 | -32.82765 | -68.79707 | 2319 ft | 0 kts | 351° |
| 2026-04-28 00:26 | -32.82771 | -68.79707 | 2319 ft | 1 kts | 1° |
| 2026-04-28 00:26 | -32.82774 | -68.79707 | 2319 ft | 0 kts | 360° |
| 2026-04-28 00:27 | -32.82773 | -68.79707 | 2319 ft | 0 kts | 360° |
| 2026-04-28 00:27 | -32.82757 | -68.79707 | 2319 ft | 6 kts | 360° |
| 2026-04-28 00:28 | -32.82689 | -68.79701 | 2319 ft | 8 kts | 29° |
| 2026-04-28 00:28 | -32.82673 | -68.79647 | 2319 ft | 7 kts | 84° |
| 2026-04-28 00:28 | -32.82649 | -68.79531 | 2319 ft | 20 kts | 46° |
| 2026-04-28 00:28 | -32.82524 | -68.79504 | 2319 ft | 21 kts | 4° |
| 2026-04-28 00:29 | -32.82364 | -68.79503 | 2319 ft | 23 kts | 359° |
| 2026-04-28 00:29 | -32.82200 | -68.79502 | 2319 ft | 23 kts | 4° |
| 2026-04-28 00:29 | -32.82039 | -68.79495 | 2319 ft | 22 kts | 358° |
| 2026-04-28 00:29 | -32.81942 | -68.79479 | 2319 ft | 10 kts | 32° |
| 2026-04-28 00:30 | -32.81895 | -68.79408 | 2319 ft | 12 kts | 79° |
| 2026-04-28 00:30 | -32.81894 | -68.79394 | 2319 ft | 0 kts | 89° |
| 2026-04-28 00:31 | -32.81894 | -68.79389 | 2319 ft | 1 kts | 94° |
| 2026-04-28 00:32 | -32.81925 | -68.79327 | 2319 ft | 16 kts | 127° |
| 2026-04-28 00:32 | -32.81998 | -68.79271 | 2319 ft | 8 kts | 175° |
| 2026-04-28 00:32 | -32.82196 | -68.79272 | 2319 ft | 61 kts | 182° |
| 2026-04-28 00:32 | -32.82848 | -68.79283 | 2319 ft | 124 kts | 180° |
| 2026-04-28 00:33 | -32.83895 | -68.79298 | 2324 ft | 174 kts | 181° |
| 2026-04-28 00:33 | -32.85151 | -68.79288 | 2827 ft | 178 kts | 180° |
| 2026-04-28 00:33 | -32.86372 | -68.79301 | 3447 ft | 183 kts | 182° |
| 2026-04-28 00:33 | -32.87732 | -68.79346 | 3679 ft | 211 kts | 182° |
| 2026-04-28 00:34 | -32.89315 | -68.79394 | 3847 ft | 245 kts | 182° |
| 2026-04-28 00:34 | -32.91151 | -68.79135 | 3988 ft | 282 kts | 158° |
| 2026-04-28 00:34 | -32.92748 | -68.77748 | 4130 ft | 300 kts | 128° |
| 2026-04-28 00:34 | -32.93406 | -68.76341 | 4148 ft | 294 kts | 108° |
| 2026-04-28 00:35 | -32.93515 | -68.73131 | 4644 ft | 290 kts | 85° |
| 2026-04-28 00:35 | -32.93337 | -68.70787 | 5671 ft | 283 kts | 85° |
| 2026-04-28 00:35 | -32.93175 | -68.68501 | 6723 ft | 277 kts | 85° |
| 2026-04-28 00:35 | -32.93015 | -68.66215 | 7497 ft | 280 kts | 85° |
| 2026-04-28 00:36 | -32.92855 | -68.63918 | 8215 ft | 284 kts | 85° |
| 2026-04-28 00:36 | -32.92690 | -68.61571 | 8936 ft | 287 kts | 85° |
| 2026-04-28 00:36 | -32.92531 | -68.59172 | 9642 ft | 290 kts | 87° |
| 2026-04-28 00:36 | -32.92469 | -68.56773 | 10308 ft | 293 kts | 89° |
| 2026-04-28 00:37 | -32.92437 | -68.54308 | 10689 ft | 307 kts | 89° |
| 2026-04-28 00:37 | -32.92407 | -68.51702 | 10983 ft | 323 kts | 89° |
| 2026-04-28 00:37 | -32.92372 | -68.48946 | 11274 ft | 339 kts | 89° |
| 2026-04-28 00:37 | -32.92334 | -68.46075 | 11555 ft | 355 kts | 89° |
| 2026-04-28 00:38 | -32.92291 | -68.43080 | 11877 ft | 369 kts | 89° |
| 2026-04-28 00:38 | -32.92246 | -68.40006 | 12453 ft | 374 kts | 89° |
| 2026-04-28 00:38 | -32.92200 | -68.36921 | 13083 ft | 377 kts | 89° |
| 2026-04-28 00:38 | -32.92151 | -68.33773 | 13679 ft | 382 kts | 88° |
| 2026-04-28 00:39 | -32.92117 | -68.31667 | 14069 ft | 385 kts | 88° |
| 2026-04-28 00:39 | -32.92048 | -68.27399 | 14852 ft | 392 kts | 88° |
| 2026-04-28 00:39 | -32.91994 | -68.24143 | 15437 ft | 396 kts | 88° |
| 2026-04-28 00:39 | -32.91939 | -68.20859 | 16016 ft | 401 kts | 88° |
| 2026-04-28 00:40 | -32.91883 | -68.17524 | 16593 ft | 406 kts | 89° |
| 2026-04-28 00:40 | -32.91826 | -68.14157 | 17166 ft | 411 kts | 89° |
| 2026-04-28 00:40 | -32.91766 | -68.10725 | 17736 ft | 415 kts | 89° |
| 2026-04-28 00:40 | -32.91705 | -68.07270 | 18289 ft | 420 kts | 89° |
| 2026-04-28 00:41 | -32.91642 | -68.03777 | 18829 ft | 425 kts | 89° |
| 2026-04-28 00:41 | -32.91577 | -68.00244 | 19357 ft | 429 kts | 89° |
| 2026-04-28 00:41 | -32.91511 | -67.96700 | 19873 ft | 433 kts | 89° |
| 2026-04-28 00:41 | -32.91443 | -67.93093 | 20378 ft | 438 kts | 89° |
| 2026-04-28 00:42 | -32.91372 | -67.89459 | 20872 ft | 442 kts | 89° |
| 2026-04-28 00:42 | -32.91300 | -67.85783 | 21355 ft | 446 kts | 89° |
| 2026-04-28 00:42 | -32.91226 | -67.82102 | 21823 ft | 450 kts | 90° |
| 2026-04-28 00:42 | -32.91150 | -67.78341 | 22287 ft | 453 kts | 90° |
| 2026-04-28 00:43 | -32.91092 | -67.74547 | 22739 ft | 457 kts | 92° |
| 2026-04-28 00:43 | -32.91234 | -67.70792 | 23177 ft | 459 kts | 97° |
| 2026-04-28 00:43 | -32.91655 | -67.66993 | 23613 ft | 461 kts | 103° |
| 2026-04-28 00:43 | -32.92310 | -67.63277 | 24040 ft | 463 kts | 105° |
| 2026-04-28 00:44 | -32.93048 | -67.59529 | 24465 ft | 466 kts | 106° |
| 2026-04-28 00:44 | -32.93808 | -67.55741 | 24878 ft | 469 kts | 107° |
| 2026-04-28 00:44 | -32.94564 | -67.51942 | 25285 ft | 472 kts | 107° |
| 2026-04-28 00:44 | -32.95319 | -67.48114 | 25687 ft | 475 kts | 107° |
| 2026-04-28 00:45 | -32.96070 | -67.44273 | 26076 ft | 477 kts | 107° |
| 2026-04-28 00:45 | -32.96823 | -67.40398 | 26451 ft | 480 kts | 107° |
| 2026-04-28 00:45 | -32.97575 | -67.36518 | 26801 ft | 483 kts | 107° |
| 2026-04-28 00:45 | -32.98323 | -67.32639 | 27131 ft | 486 kts | 106° |
| 2026-04-28 00:46 | -32.99073 | -67.28720 | 27543 ft | 486 kts | 107° |
| 2026-04-28 00:46 | -32.99822 | -67.24799 | 28020 ft | 485 kts | 107° |
| 2026-04-28 00:46 | -33.00492 | -67.21285 | 28430 ft | 483 kts | 107° |
| 2026-04-28 00:46 | -33.01240 | -67.17366 | 28851 ft | 482 kts | 107° |
| 2026-04-28 00:47 | -33.01979 | -67.13519 | 29211 ft | 482 kts | 107° |
| 2026-04-28 00:47 | -33.02732 | -67.09593 | 29549 ft | 483 kts | 107° |
| 2026-04-28 00:47 | -33.03471 | -67.05727 | 29895 ft | 482 kts | 106° |
| 2026-04-28 00:47 | -33.04215 | -67.01818 | 30272 ft | 481 kts | 106° |
| 2026-04-28 00:48 | -33.04951 | -66.97936 | 30667 ft | 479 kts | 105° |
| 2026-04-28 00:48 | -33.05677 | -66.94093 | 31068 ft | 477 kts | 105° |
| 2026-04-28 00:48 | -33.06395 | -66.90269 | 31451 ft | 474 kts | 106° |
| 2026-04-28 00:48 | -33.07116 | -66.86427 | 31809 ft | 472 kts | 106° |
| 2026-04-28 00:49 | -33.07834 | -66.82610 | 32146 ft | 471 kts | 106° |
| 2026-04-28 00:49 | -33.08552 | -66.78809 | 32474 ft | 469 kts | 107° |
| 2026-04-28 00:49 | -33.09272 | -66.75017 | 32793 ft | 467 kts | 107° |
| 2026-04-28 00:49 | -33.09984 | -66.71259 | 33105 ft | 465 kts | 107° |
| 2026-04-28 00:50 | -33.10710 | -66.67464 | 33423 ft | 463 kts | 107° |
| 2026-04-28 00:50 | -33.11430 | -66.63727 | 33731 ft | 462 kts | 107° |
| 2026-04-28 00:50 | -33.12143 | -66.60001 | 34027 ft | 460 kts | 107° |
| 2026-04-28 00:50 | -33.12855 | -66.56248 | 34305 ft | 458 kts | 107° |
| 2026-04-28 00:51 | -33.13549 | -66.52565 | 34549 ft | 458 kts | 107° |
| 2026-04-28 00:51 | -33.14011 | -66.50102 | 34699 ft | 457 kts | 107° |
| 2026-04-28 00:51 | -33.15542 | -66.41891 | 35171 ft | 456 kts | 107° |
| 2026-04-28 00:52 | -33.16233 | -66.38171 | 35375 ft | 456 kts | 107° |
| 2026-04-28 00:52 | -33.16915 | -66.34487 | 35571 ft | 456 kts | 107° |
| 2026-04-28 00:52 | -33.17595 | -66.30786 | 35725 ft | 456 kts | 107° |
| 2026-04-28 00:52 | -33.18274 | -66.27082 | 35852 ft | 457 kts | 107° |
| 2026-04-28 00:53 | -33.18954 | -66.23367 | 35979 ft | 457 kts | 107° |
| 2026-04-28 00:53 | -33.19632 | -66.19675 | 36108 ft | 458 kts | 107° |
| 2026-04-28 00:53 | -33.20315 | -66.15962 | 36235 ft | 458 kts | 107° |
| 2026-04-28 00:53 | -33.21004 | -66.12246 | 36353 ft | 459 kts | 107° |
| 2026-04-28 00:54 | -33.21692 | -66.08542 | 36465 ft | 459 kts | 107° |
| 2026-04-28 00:54 | -33.22379 | -66.04828 | 36574 ft | 460 kts | 107° |
| 2026-04-28 00:54 | -33.23066 | -66.01093 | 36681 ft | 461 kts | 107° |
| 2026-04-28 00:54 | -33.23759 | -65.97317 | 36787 ft | 461 kts | 107° |
| 2026-04-28 00:55 | -33.24446 | -65.93552 | 36890 ft | 462 kts | 107° |
| 2026-04-28 00:55 | -33.24903 | -65.91045 | 36957 ft | 462 kts | 107° |